createdAt,value
2023-08-29T00:02:33.951Z,0.90
2023-08-29T00:07:43.798Z,0.70
2023-08-29T00:12:52.269Z,1.10
2023-08-29T00:18:01.505Z,1.00
2023-08-29T00:23:11.853Z,0.80
2023-08-29T00:28:20.755Z,1.00
2023-08-29T00:33:28.914Z,0.90
2023-08-29T00:38:37.105Z,1.10
2023-08-29T00:43:45.486Z,1.10
2023-08-29T00:48:54.171Z,0.80
2023-08-29T00:54:03.302Z,0.90
2023-08-29T00:59:11.592Z,0.60
2023-08-29T01:04:20.976Z,0.80
2023-08-29T01:09:29.784Z,0.90
2023-08-29T01:14:43.052Z,0.80
2023-08-29T01:19:55.309Z,0.80
2023-08-29T01:25:14.522Z,0.70
2023-08-29T01:30:24.036Z,1.00
2023-08-29T01:35:32.813Z,1.10
2023-08-29T01:40:41.032Z,0.90
2023-08-29T01:45:49.874Z,1.10
2023-08-29T01:50:58.348Z,1.10
2023-08-29T01:56:09.790Z,0.90
2023-08-29T02:01:23.420Z,0.90
2023-08-29T02:06:34.389Z,1.20
2023-08-29T02:11:42.667Z,0.80
2023-08-29T02:16:50.946Z,1.10
2023-08-29T02:21:59.131Z,0.90
2023-08-29T02:27:07.977Z,1.00
2023-08-29T02:32:16.688Z,1.00
2023-08-29T02:37:25.688Z,1.10
2023-08-29T02:42:33.906Z,1.10
2023-08-29T02:47:42.838Z,1.50
2023-08-29T02:52:51.063Z,1.90
2023-08-29T02:58:00.074Z,1.70
2023-08-29T03:03:08.758Z,1.90
2023-08-29T03:08:17.073Z,1.40
2023-08-29T03:13:26.111Z,1.30
2023-08-29T03:18:34.653Z,1.40
2023-08-29T03:23:42.861Z,1.50
2023-08-29T03:28:52.061Z,1.70
2023-08-29T03:34:00.268Z,1.50
2023-08-29T03:39:09.018Z,1.60
2023-08-29T03:44:17.212Z,1.80
2023-08-29T03:49:26.330Z,1.40
2023-08-29T03:54:34.822Z,2.00
2023-08-29T03:59:43.309Z,1.90
2023-08-29T04:04:55.102Z,1.80
2023-08-29T04:10:04.990Z,2.00
2023-08-29T04:15:13.813Z,2.00
2023-08-29T04:20:22.927Z,1.90
2023-08-29T04:25:31.165Z,1.90
2023-08-29T04:30:39.676Z,1.90
2023-08-29T04:35:51.084Z,1.90
2023-08-29T04:40:59.295Z,1.60
2023-08-29T04:46:08.827Z,1.80
2023-08-29T04:51:17.376Z,2.30
2023-08-29T04:56:25.981Z,1.80
2023-08-29T05:01:34.216Z,2.10
2023-08-29T05:06:42.410Z,2.00
2023-08-29T05:11:50.630Z,2.10
2023-08-29T05:16:58.957Z,1.90
2023-08-29T05:22:07.644Z,2.10
2023-08-29T05:27:15.829Z,1.90
2023-08-29T05:32:26.607Z,1.90
2023-08-29T05:37:35.840Z,1.80
2023-08-29T05:42:44.018Z,1.60
2023-08-29T05:47:52.545Z,1.90
2023-08-29T05:53:01.224Z,2.00
2023-08-29T05:58:10.275Z,2.10
2023-08-29T06:03:20.604Z,2.00
2023-08-29T06:08:31.417Z,1.80
2023-08-29T06:13:40.013Z,2.10
2023-08-29T06:18:48.641Z,1.70
2023-08-29T06:23:57.316Z,1.70
2023-08-29T06:29:06.578Z,1.60
2023-08-29T06:34:14.836Z,1.50
2023-08-29T06:39:23.222Z,1.50
2023-08-29T06:44:31.502Z,1.90
2023-08-29T06:49:39.725Z,1.70
2023-08-29T06:54:48.248Z,1.80
2023-08-29T06:59:56.497Z,2.30
2023-08-29T07:05:06.129Z,2.90
2023-08-29T07:10:14.697Z,2.80
2023-08-29T07:15:24.082Z,2.10
2023-08-29T07:20:32.692Z,2.40
2023-08-29T07:25:42.936Z,2.60
2023-08-29T07:30:52.756Z,2.10
2023-08-29T07:36:01.058Z,2.10
2023-08-29T07:41:09.306Z,2.30
2023-08-29T07:46:17.725Z,2.60
2023-08-29T07:51:26.312Z,2.60
2023-08-29T07:56:35.546Z,2.40
2023-08-29T08:01:44.011Z,2.70
2023-08-29T08:06:52.216Z,2.90
2023-08-29T08:12:01.806Z,2.30
2023-08-29T08:17:10.027Z,2.30
2023-08-29T08:22:18.330Z,2.60
2023-08-29T08:27:26.551Z,2.30
2023-08-29T08:32:34.728Z,2.00
2023-08-29T08:37:42.941Z,2.50
2023-08-29T08:42:51.112Z,2.10
2023-08-29T08:48:00.190Z,2.20
2023-08-29T08:53:11.879Z,2.60
2023-08-29T08:58:21.036Z,2.30
2023-08-29T09:03:29.261Z,2.00
2023-08-29T09:08:38.350Z,2.70
2023-08-29T09:13:51.179Z,2.60
2023-08-29T09:18:59.998Z,2.50
2023-08-29T09:24:10.680Z,2.40
2023-08-29T09:29:22.892Z,3.00
2023-08-29T09:34:32.906Z,2.40
2023-08-29T09:39:41.351Z,3.00
2023-08-29T09:44:52.406Z,2.60
2023-08-29T09:50:00.681Z,2.50
2023-08-29T09:55:14.223Z,2.50
2023-08-29T10:00:24.272Z,2.70
2023-08-29T10:05:37.466Z,2.30
2023-08-29T10:10:46.694Z,2.90
2023-08-29T10:15:55.969Z,3.00
2023-08-29T10:21:06.341Z,2.60
2023-08-29T10:26:15.388Z,2.80
2023-08-29T10:31:23.975Z,3.20
2023-08-29T10:36:32.723Z,3.00
2023-08-29T10:41:50.199Z,3.60
2023-08-29T10:47:20.779Z,3.50
2023-08-29T10:52:39.014Z,3.10
2023-08-29T10:57:47.452Z,3.10
2023-08-29T11:02:58.267Z,3.40
2023-08-29T11:08:31.335Z,3.00
2023-08-29T11:13:57.947Z,2.60
2023-08-29T11:19:15.010Z,2.70
2023-08-29T11:24:24.671Z,2.80
2023-08-29T11:29:40.041Z,2.60
2023-08-29T11:34:53.085Z,2.70
2023-08-29T11:40:07.552Z,2.90
2023-08-29T11:45:45.220Z,2.40
2023-08-29T11:50:48.390Z,2.90
2023-08-29T11:55:56.680Z,2.80
2023-08-29T12:01:08.522Z,2.70
2023-08-29T12:06:17.484Z,3.40
2023-08-29T12:11:26.038Z,3.00
2023-08-29T12:16:34.595Z,2.90
2023-08-29T12:21:43.296Z,3.00
2023-08-29T12:26:51.528Z,2.80
2023-08-29T12:32:00.127Z,2.70
2023-08-29T12:37:08.948Z,3.00
2023-08-29T12:42:17.450Z,2.60
2023-08-29T12:47:25.675Z,2.80
2023-08-29T12:52:34.048Z,2.40
2023-08-29T12:57:42.304Z,2.60
2023-08-29T13:02:50.999Z,2.70
2023-08-29T13:07:59.500Z,2.70
2023-08-29T13:13:08.349Z,3.20
2023-08-29T13:18:16.711Z,3.00
2023-08-29T13:23:25.040Z,3.20
2023-08-29T13:28:33.327Z,3.10
2023-08-29T13:33:41.577Z,3.20
2023-08-29T13:38:49.894Z,3.80
2023-08-29T13:43:58.351Z,3.70
2023-08-29T13:49:07.299Z,2.90
2023-08-29T13:54:15.842Z,3.10
2023-08-29T13:59:24.057Z,3.60
2023-08-29T14:04:32.390Z,3.40
2023-08-29T14:09:41.274Z,3.60
2023-08-29T14:14:49.449Z,3.60
2023-08-29T14:19:58.397Z,4.20
2023-08-29T14:25:07.646Z,4.20
2023-08-29T14:30:16.331Z,4.10
2023-08-29T14:35:24.396Z,4.10
2023-08-29T14:40:32.437Z,4.30
2023-08-29T14:45:45.703Z,4.20
2023-08-29T14:50:53.754Z,4.90
2023-08-29T14:56:03.807Z,4.40
2023-08-29T15:01:11.993Z,7.90
2023-08-29T15:06:20.076Z,4.80
2023-08-29T15:11:28.966Z,4.50
2023-08-29T15:16:37.595Z,4.90
2023-08-29T15:21:45.654Z,6.30
2023-08-29T15:26:53.696Z,7.60
2023-08-29T15:32:01.745Z,7.70
2023-08-29T15:37:09.768Z,4.70
2023-08-29T15:42:17.996Z,5.80
2023-08-29T15:47:26.184Z,6.10
2023-08-29T15:52:34.632Z,5.60
2023-08-29T15:57:43.420Z,4.80
2023-08-29T16:02:54.141Z,5.30
2023-08-29T16:08:03.538Z,5.90
2023-08-29T16:13:11.999Z,5.00
2023-08-29T16:18:20.199Z,5.50
2023-08-29T16:23:28.654Z,5.20
2023-08-29T16:28:36.666Z,5.00
2023-08-29T16:33:44.711Z,6.10
2023-08-29T16:38:53.338Z,5.80
2023-08-29T16:44:01.727Z,5.10
2023-08-29T16:49:09.808Z,5.50
2023-08-29T16:54:19.259Z,5.70
2023-08-29T16:59:27.623Z,5.80
2023-08-29T17:04:35.662Z,4.90
2023-08-29T17:09:44.976Z,5.10
2023-08-29T17:14:54.589Z,5.40
2023-08-29T17:20:02.679Z,5.00
2023-08-29T17:25:12.484Z,5.60
2023-08-29T17:30:22.090Z,6.60
2023-08-29T17:35:30.456Z,5.20
2023-08-29T17:40:38.861Z,5.70
2023-08-29T17:45:55.254Z,5.60
2023-08-29T17:51:03.745Z,6.70
2023-08-29T17:56:11.783Z,6.20
2023-08-29T18:01:20.008Z,6.40
2023-08-29T18:06:28.489Z,7.10
2023-08-29T18:11:37.186Z,6.40
2023-08-29T18:16:46.862Z,6.30
2023-08-29T18:21:55.006Z,6.90
2023-08-29T18:27:03.196Z,7.10
2023-08-29T18:32:11.369Z,6.00
2023-08-29T18:37:19.427Z,7.30
2023-08-29T18:42:27.675Z,6.40
2023-08-29T18:47:36.105Z,6.40
2023-08-29T18:52:44.758Z,5.90
2023-08-29T18:57:52.902Z,6.90
2023-08-29T19:03:01.527Z,6.10
2023-08-29T19:08:10.116Z,4.90
2023-08-29T19:13:18.564Z,5.40
2023-08-29T19:18:27.033Z,5.30
2023-08-29T19:23:35.037Z,5.10
2023-08-29T19:28:43.076Z,5.30
2023-08-29T19:33:51.088Z,4.70
2023-08-29T19:39:12.189Z,5.20
2023-08-29T19:44:26.251Z,5.70
2023-08-29T19:49:40.245Z,5.20
2023-08-29T19:54:48.309Z,5.10
2023-08-29T19:59:56.384Z,5.60
2023-08-29T20:05:06.341Z,5.20
2023-08-29T20:10:14.771Z,5.30
2023-08-29T20:15:22.796Z,4.90
2023-08-29T20:20:31.050Z,6.20
2023-08-29T20:25:39.466Z,5.90
2023-08-29T20:30:47.520Z,5.60
2023-08-29T20:35:55.530Z,5.90
2023-08-29T20:41:03.944Z,5.30
2023-08-29T20:46:12.049Z,5.40
2023-08-29T20:51:20.278Z,5.30
2023-08-29T20:56:28.886Z,5.10
2023-08-29T21:01:36.914Z,4.10
2023-08-29T21:06:44.973Z,4.20
2023-08-29T21:11:53.830Z,4.40
2023-08-29T21:17:01.925Z,3.10
2023-08-29T21:22:10.304Z,4.50
2023-08-29T21:27:18.339Z,4.90
2023-08-29T21:32:26.334Z,5.50
2023-08-29T21:37:34.412Z,5.70
2023-08-29T21:42:42.445Z,6.90
2023-08-29T21:47:52.793Z,7.10
2023-08-29T21:53:00.824Z,6.90
2023-08-29T21:58:11.898Z,5.80
2023-08-29T22:03:21.168Z,7.00
2023-08-29T22:08:29.828Z,8.10
2023-08-29T22:13:37.930Z,8.10
2023-08-29T22:18:45.994Z,9.00
2023-08-29T22:23:54.464Z,9.70
2023-08-29T22:29:02.916Z,7.90
2023-08-29T22:34:11.066Z,7.80
2023-08-29T22:39:19.095Z,10.20
2023-08-29T22:44:27.222Z,11.10
2023-08-29T22:49:36.087Z,9.60
2023-08-29T22:54:44.085Z,9.90
2023-08-29T22:59:52.138Z,7.10
2023-08-29T23:05:00.159Z,4.70
2023-08-29T23:10:09.691Z,3.80
2023-08-29T23:15:18.121Z,3.40
2023-08-29T23:20:26.163Z,2.70
2023-08-29T23:25:34.804Z,2.70
2023-08-29T23:30:42.952Z,2.70
2023-08-29T23:35:51.420Z,2.60
2023-08-29T23:41:00.220Z,2.10
2023-08-29T23:46:08.458Z,2.70
2023-08-29T23:51:16.760Z,2.80
2023-08-29T23:56:24.855Z,2.90
